Terminal Aerodrome Forecast
Issued by NWS

Home | Current Version | Previous Version | Text Only | Print | Product List | Glossary On
Versions: 1 2 3 4 5 6 7 8 9 10 11 12 13 14 15 16
503
FTUS43 KGRB 100525
TAFAUW
TAF
KAUW 100525Z 1006/1106 27006KT P6SM -SHSN SCT025 OVC035
     FM101000 28007KT P6SM BKN030
     FM101900 28006KT P6SM SCT030 BKN250
     FM102300 VRB03KT P6SM BKN025
     FM110500 11004KT 5SM -SN BKN015=

USA.gov is the U.S. government's official web portal to all federal, state and local government web resources and services.